Time;durP1;ratioP1;P1;durP2;ratioP2;P2;SDS_P1;SDS_P2;PMS_P1;PMS_P2;Temp;Humidity;BMP_temperature;BMP_pressure;BME280_temperature;BME280_humidity;BME280_pressure;Samples;Min_cycle;Max_cycle;Signal;HPM_P1;HPM_P2
2023/04/23 00:01:38;;;;;;;149.75;26.05;;;;;;;;;;5027040;28;20482;-63
2023/04/23 00:04:07;;;;;;;131.85;26.65;;;;;;;;;;5026976;28;20037;-62
2023/04/23 00:06:34;;;;;;;132.35;26.05;;;;;;;;;;5027636;28;20037;-62
2023/04/23 00:09:02;;;;;;;104.60;25.17;;;;;;;;;;5010161;28;20049;-63
2023/04/23 00:11:29;;;;;;;129.90;26.02;;;;;;;;;;4992617;28;20451;-62
2023/04/23 00:13:56;;;;;;;160.70;29.45;;;;;;;;;;5023956;28;20065;-62
2023/04/23 00:16:23;;;;;;;144.70;28.30;;;;;;;;;;5025669;28;20046;-62
2023/04/23 00:18:50;;;;;;;144.30;29.33;;;;;;;;;;5006914;28;20046;-61
2023/04/23 00:21:17;;;;;;;119.82;25.27;;;;;;;;;;5025984;28;20052;-62
2023/04/23 00:23:43;;;;;;;109.82;26.25;;;;;;;;;;5026714;28;20053;-62
2023/04/23 00:26:10;;;;;;;167.43;32.05;;;;;;;;;;5026711;28;20044;-62
2023/04/23 00:28:36;;;;;;;106.68;27.17;;;;;;;;;;5027194;28;20060;-62
2023/04/23 00:31:03;;;;;;;108.22;26.35;;;;;;;;;;5009427;28;20555;-62
2023/04/23 00:33:29;;;;;;;119.35;27.27;;;;;;;;;;5008477;28;20453;-63
2023/04/23 00:35:56;;;;;;;119.07;27.25;;;;;;;;;;5026595;28;20513;-61
2023/04/23 00:38:22;;;;;;;121.90;27.90;;;;;;;;;;5026749;28;20037;-63
2023/04/23 00:40:49;;;;;;;195.27;32.65;;;;;;;;;;5009403;28;20034;-61
2023/04/23 00:43:16;;;;;;;123.78;29.70;;;;;;;;;;5007683;28;20128;-63
2023/04/23 00:45:43;;;;;;;113.25;27.48;;;;;;;;;;5020845;28;20102;-62
2023/04/23 00:48:10;;;;;;;138.55;29.73;;;;;;;;;;5025049;28;20029;-61
2023/04/23 00:50:37;;;;;;;119.88;28.38;;;;;;;;;;5009548;28;20045;-62
2023/04/23 00:53:03;;;;;;;113.07;26.85;;;;;;;;;;5025586;28;20116;-62
2023/04/23 00:55:30;;;;;;;112.00;26.35;;;;;;;;;;5018668;28;20176;-61
2023/04/23 00:57:57;;;;;;;107.07;27.30;;;;;;;;;;5018434;28;20045;-63
2023/04/23 01:00:23;;;;;;;96.28;26.50;;;;;;;;;;5016260;28;20045;-61
2023/04/23 01:02:51;;;;;;;140.70;28.02;;;;;;;;;;5024355;28;20053;-61
2023/04/23 01:05:18;;;;;;;124.70;29.58;;;;;;;;;;5028148;28;20045;-63
2023/04/23 01:07:45;;;;;;;156.13;29.48;;;;;;;;;;5025466;28;20045;-65
2023/04/23 01:10:12;;;;;;;132.55;28.63;;;;;;;;;;5017609;28;20049;-62
2023/04/23 01:12:40;;;;;;;101.10;26.23;;;;;;;;;;5025194;28;20456;-62
2023/04/23 01:15:07;;;;;;;117.45;27.90;;;;;;;;;;5025215;28;20044;-63
2023/04/23 01:17:34;;;;;;;114.65;27.73;;;;;;;;;;5008918;28;20056;-62
2023/04/23 01:20:01;;;;;;;134.50;29.35;;;;;;;;;;5008869;28;20034;-62
2023/04/23 01:22:27;;;;;;;99.53;28.13;;;;;;;;;;5009954;28;20046;-61
2023/04/23 01:24:54;;;;;;;133.00;29.80;;;;;;;;;;5018090;28;20053;-61
2023/04/23 01:27:21;;;;;;;142.00;28.35;;;;;;;;;;5011699;28;20117;-62
2023/04/23 01:29:48;;;;;;;120.30;28.42;;;;;;;;;;5012409;28;20064;-62
2023/04/23 01:32:17;;;;;;;149.40;29.90;;;;;;;;;;5029307;28;20073;-62
2023/04/23 01:34:45;;;;;;;151.88;30.70;;;;;;;;;;5012636;28;20054;-64
2023/04/23 01:37:12;;;;;;;113.60;27.90;;;;;;;;;;5026992;28;20112;-63
2023/04/23 01:39:39;;;;;;;128.88;28.05;;;;;;;;;;5027634;28;20135;-62
2023/04/23 01:42:06;;;;;;;97.80;26.20;;;;;;;;;;5012350;28;20051;-63
2023/04/23 01:44:33;;;;;;;101.88;26.13;;;;;;;;;;5013915;28;20051;-62
2023/04/23 01:46:59;;;;;;;109.22;26.05;;;;;;;;;;5011975;28;20058;-62
2023/04/23 01:49:26;;;;;;;110.05;26.23;;;;;;;;;;5007846;28;20553;-64
2023/04/23 01:51:52;;;;;;;109.80;26.20;;;;;;;;;;5028024;28;20033;-63
2023/04/23 01:54:19;;;;;;;115.75;26.15;;;;;;;;;;5025181;28;20399;-63
2023/04/23 01:56:48;;;;;;;106.72;25.92;;;;;;;;;;5009201;28;20462;-61
2023/04/23 01:59:15;;;;;;;141.50;27.70;;;;;;;;;;5012886;28;20616;-62
2023/04/23 02:01:43;;;;;;;216.45;33.05;;;;;;;;;;5029445;23;20050;-64
2023/04/23 02:04:11;;;;;;;90.78;24.00;;;;;;;;;;5022499;28;20140;-63
2023/04/23 02:06:38;;;;;;;94.07;23.45;;;;;;;;;;5019183;28;20380;-65
2023/04/23 02:09:04;;;;;;;153.13;28.63;;;;;;;;;;5010938;28;20095;-61
2023/04/23 02:11:31;;;;;;;93.68;24.00;;;;;;;;;;5011371;28;20386;-63
2023/04/23 02:13:58;;;;;;;145.23;27.33;;;;;;;;;;5020851;28;20042;-62
2023/04/23 02:16:25;;;;;;;153.50;27.88;;;;;;;;;;5001343;28;20095;-66
2023/04/23 02:18:52;;;;;;;104.32;23.92;;;;;;;;;;5021665;28;20045;-65
2023/04/23 02:21:18;;;;;;;136.35;28.90;;;;;;;;;;5007630;28;20483;-62
2023/04/23 02:23:45;;;;;;;148.57;27.95;;;;;;;;;;5022006;28;20052;-65
2023/04/23 02:26:11;;;;;;;116.75;25.60;;;;;;;;;;5022213;28;20239;-65
2023/04/23 02:28:38;;;;;;;258.30;30.35;;;;;;;;;;5011904;28;20294;-64
2023/04/23 02:31:05;;;;;;;171.13;29.52;;;;;;;;;;5018408;28;20049;-63
2023/04/23 02:33:31;;;;;;;156.65;28.08;;;;;;;;;;5010379;28;20451;-65
2023/04/23 02:35:58;;;;;;;135.88;26.70;;;;;;;;;;5002678;28;20545;-61
2023/04/23 02:38:25;;;;;;;111.47;24.77;;;;;;;;;;5005513;28;20140;-64
2023/04/23 02:40:51;;;;;;;232.32;33.95;;;;;;;;;;5003274;28;20057;-67
2023/04/23 02:43:18;;;;;;;109.57;23.45;;;;;;;;;;5024584;28;20037;-63
2023/04/23 02:45:45;;;;;;;110.70;25.67;;;;;;;;;;5021635;28;20044;-63
2023/04/23 02:48:11;;;;;;;111.53;24.88;;;;;;;;;;5018660;28;20061;-65
2023/04/23 02:50:38;;;;;;;113.15;24.90;;;;;;;;;;5009533;28;20068;-64
2023/04/23 02:53:04;;;;;;;122.57;25.05;;;;;;;;;;5010422;28;20073;-65
2023/04/23 02:55:31;;;;;;;115.57;23.90;;;;;;;;;;5018759;28;20038;-63
2023/04/23 02:57:57;;;;;;;98.00;23.23;;;;;;;;;;5019909;28;20127;-65
2023/04/23 03:00:25;;;;;;;91.38;22.08;;;;;;;;;;5019889;28;20083;-62
2023/04/23 03:02:52;;;;;;;137.43;26.63;;;;;;;;;;5009321;28;20081;-66
2023/04/23 03:05:19;;;;;;;108.43;23.35;;;;;;;;;;5009199;28;20077;-64
2023/04/23 03:07:45;;;;;;;107.57;24.73;;;;;;;;;;5011223;28;20038;-64
2023/04/23 03:10:11;;;;;;;124.50;24.40;;;;;;;;;;5008665;28;20048;-66
2023/04/23 03:12:38;;;;;;;117.22;24.25;;;;;;;;;;5020185;28;20406;-63
2023/04/23 03:15:05;;;;;;;88.20;22.77;;;;;;;;;;5019464;28;20072;-66
2023/04/23 03:17:34;;;;;;;122.00;24.35;;;;;;;;;;5025111;28;20037;-65
2023/04/23 03:20:01;;;;;;;118.53;22.98;;;;;;;;;;5018887;28;20041;-64
2023/04/23 03:22:29;;;;;;;75.78;20.00;;;;;;;;;;5008859;28;20488;-66
2023/04/23 03:24:55;;;;;;;104.22;22.10;;;;;;;;;;5020074;28;20128;-64
2023/04/23 03:27:22;;;;;;;111.93;22.80;;;;;;;;;;5015003;28;20064;-65
2023/04/23 03:29:48;;;;;;;91.20;22.95;;;;;;;;;;5001018;28;20052;-64
2023/04/23 03:32:15;;;;;;;133.98;23.73;;;;;;;;;;5019059;28;20123;-62
2023/04/23 03:34:41;;;;;;;107.28;22.48;;;;;;;;;;5011292;28;20055;-66
2023/04/23 03:37:08;;;;;;;107.05;21.55;;;;;;;;;;5024080;28;20049;-65
2023/04/23 03:39:37;;;;;;;122.25;21.00;;;;;;;;;;5007242;28;20064;-62
2023/04/23 03:42:04;;;;;;;102.15;21.17;;;;;;;;;;5002765;28;20111;-65
2023/04/23 03:44:31;;;;;;;91.78;20.85;;;;;;;;;;5010041;28;20049;-63
2023/04/23 03:46:57;;;;;;;174.35;25.50;;;;;;;;;;5009815;28;20069;-65
2023/04/23 03:49:25;;;;;;;114.50;20.55;;;;;;;;;;5018443;28;20168;-65
2023/04/23 03:51:56;;;;;;;83.63;20.65;;;;;;;;;;5021080;28;20089;-65
2023/04/23 03:54:24;;;;;;;127.57;21.90;;;;;;;;;;5019015;28;20049;-64
2023/04/23 03:57:13;;;;;;;113.70;23.83;;;;;;;;;;5021251;28;20111;-65
2023/04/23 03:59:55;;;;;;;103.57;19.17;;;;;;;;;;5003354;28;20149;-64
2023/04/23 04:02:23;;;;;;;81.20;17.73;;;;;;;;;;5008190;28;20136;-61
2023/04/23 04:04:53;;;;;;;180.60;25.33;;;;;;;;;;5002084;28;20167;-62
2023/04/23 04:07:22;;;;;;;105.75;19.20;;;;;;;;;;5016329;28;20052;-66
2023/04/23 04:09:49;;;;;;;94.15;17.88;;;;;;;;;;5018858;28;20405;-64
2023/04/23 04:12:15;;;;;;;129.57;21.00;;;;;;;;;;5009068;28;20149;-62
2023/04/23 04:14:42;;;;;;;91.32;17.33;;;;;;;;;;5019854;28;20424;-65
2023/04/23 04:17:09;;;;;;;92.00;17.23;;;;;;;;;;5015104;28;20540;-63
2023/04/23 04:19:35;;;;;;;132.10;20.13;;;;;;;;;;5005659;28;20042;-66
2023/04/23 04:22:02;;;;;;;96.80;17.50;;;;;;;;;;5019472;28;20058;-65
2023/04/23 04:24:31;;;;;;;52.80;14.30;;;;;;;;;;5019094;28;20351;-64
2023/04/23 04:26:58;;;;;;;108.78;17.65;;;;;;;;;;5007058;28;20069;-66
2023/04/23 04:29:25;;;;;;;100.28;18.30;;;;;;;;;;5001947;28;20042;-64
2023/04/23 04:31:52;;;;;;;105.10;16.98;;;;;;;;;;5017410;28;20136;-66
2023/04/23 04:34:19;;;;;;;103.55;16.73;;;;;;;;;;5009316;28;20136;-64
2023/04/23 04:36:46;;;;;;;96.32;16.73;;;;;;;;;;5017884;28;20407;-60
2023/04/23 04:39:13;;;;;;;68.45;13.90;;;;;;;;;;5007867;28;20049;-64
2023/04/23 04:41:40;;;;;;;146.35;19.88;;;;;;;;;;5000239;28;20047;-61
2023/04/23 04:44:07;;;;;;;81.22;14.85;;;;;;;;;;5003242;28;20473;-65
2023/04/23 04:46:39;;;;;;;76.32;15.02;;;;;;;;;;5009784;28;20156;-64
2023/04/23 04:49:07;;;;;;;99.45;15.13;;;;;;;;;;5017150;28;20042;-61
2023/04/23 04:51:33;;;;;;;79.13;14.23;;;;;;;;;;5019669;28;20057;-64
2023/04/23 04:54:00;;;;;;;69.10;13.32;;;;;;;;;;5021529;28;20033;-62
2023/04/23 04:56:27;;;;;;;88.75;15.38;;;;;;;;;;5018742;28;20498;-62
2023/04/23 04:58:53;;;;;;;104.90;15.95;;;;;;;;;;5018017;28;20392;-64
2023/04/23 05:01:20;;;;;;;76.35;14.38;;;;;;;;;;5019047;28;20045;-63
2023/04/23 05:03:47;;;;;;;100.60;15.77;;;;;;;;;;5023399;28;20085;-63
2023/04/23 05:06:14;;;;;;;67.03;12.77;;;;;;;;;;5009321;28;20053;-58
2023/04/23 05:08:42;;;;;;;49.38;11.60;;;;;;;;;;5023512;28;20545;-62
2023/04/23 05:11:09;;;;;;;105.68;15.00;;;;;;;;;;5025952;28;20049;-62
2023/04/23 05:13:35;;;;;;;94.05;14.48;;;;;;;;;;5026860;28;20097;-62
2023/04/23 05:16:02;;;;;;;41.78;10.35;;;;;;;;;;5024514;28;20432;-66
2023/04/23 05:18:28;;;;;;;68.68;12.65;;;;;;;;;;5009282;28;20075;-62
2023/04/23 05:20:55;;;;;;;83.85;13.30;;;;;;;;;;5024355;28;20131;-65
2023/04/23 05:23:21;;;;;;;67.90;12.13;;;;;;;;;;5005010;28;20530;-63
2023/04/23 05:25:50;;;;;;;131.77;15.90;;;;;;;;;;5002305;28;20083;-63
2023/04/23 05:28:19;;;;;;;73.20;12.30;;;;;;;;;;5019705;28;20061;-62
2023/04/23 05:30:46;;;;;;;58.45;11.50;;;;;;;;;;5026122;28;20042;-63
2023/04/23 05:33:12;;;;;;;107.15;15.15;;;;;;;;;;5022939;28;20133;-64
2023/04/23 05:35:39;;;;;;;72.47;12.52;;;;;;;;;;5021779;28;20504;-63
2023/04/23 05:38:05;;;;;;;55.70;10.13;;;;;;;;;;5021389;28;20137;-62
2023/04/23 05:40:32;;;;;;;97.10;14.30;;;;;;;;;;5020254;28;20383;-64
2023/04/23 05:42:59;;;;;;;80.15;12.95;;;;;;;;;;5004683;28;20140;-64
2023/04/23 05:45:26;;;;;;;55.63;10.95;;;;;;;;;;5021316;28;20278;-61
2023/04/23 05:47:52;;;;;;;117.45;14.60;;;;;;;;;;5011827;28;20692;-63
2023/04/23 05:50:20;;;;;;;60.20;10.77;;;;;;;;;;5022084;28;20231;-63
2023/04/23 05:52:46;;;;;;;82.80;12.55;;;;;;;;;;5022409;28;20398;-63
2023/04/23 05:55:17;;;;;;;131.85;15.73;;;;;;;;;;5011439;28;20057;-63
2023/04/23 05:57:43;;;;;;;71.13;12.20;;;;;;;;;;5022784;28;20487;-65
2023/04/23 06:00:10;;;;;;;41.78;9.60;;;;;;;;;;5019565;28;20045;-64
2023/04/23 06:02:40;;;;;;;107.85;14.45;;;;;;;;;;5002610;28;20097;-63
2023/04/23 06:05:07;;;;;;;98.63;13.45;;;;;;;;;;5025093;28;20069;-63
2023/04/23 06:07:35;;;;;;;57.15;10.55;;;;;;;;;;5020316;28;20066;-63
2023/04/23 06:10:03;;;;;;;75.00;12.25;;;;;;;;;;5024558;28;20045;-64
2023/04/23 06:12:30;;;;;;;68.80;11.82;;;;;;;;;;5022645;28;20037;-65
2023/04/23 06:14:57;;;;;;;52.55;11.32;;;;;;;;;;5022481;28;20399;-64
2023/04/23 06:17:24;;;;;;;124.68;45.08;;;;;;;;;;5021396;28;20096;-63
2023/04/23 06:19:51;;;;;;;101.80;17.40;;;;;;;;;;5022374;28;20104;-62
2023/04/23 06:22:17;;;;;;;53.92;31.48;;;;;;;;;;5018796;28;20077;-64
2023/04/23 06:24:43;;;;;;;124.50;19.88;;;;;;;;;;5018577;28;20038;-63
2023/04/23 06:27:10;;;;;;;110.22;56.55;;;;;;;;;;5025422;28;20045;-63
2023/04/23 06:29:41;;;;;;;62.80;12.20;;;;;;;;;;5003594;28;20392;-64
2023/04/23 06:32:08;;;;;;;85.70;20.65;;;;;;;;;;5010628;28;20129;-65
2023/04/23 06:34:35;;;;;;;58.88;12.77;;;;;;;;;;5020553;28;20042;-64
2023/04/23 06:37:05;;;;;;;83.43;12.43;;;;;;;;;;5021618;28;20052;-64
2023/04/23 06:39:31;;;;;;;87.65;11.35;;;;;;;;;;5021243;28;20056;-66
2023/04/23 06:41:58;;;;;;;61.97;10.85;;;;;;;;;;5020021;28;20045;-64
2023/04/23 06:44:33;;;;;;;61.10;16.50;;;;;;;;;;5011575;28;20507;-64
2023/04/23 06:47:01;;;;;;;110.63;19.48;;;;;;;;;;5019992;28;20084;-64
2023/04/23 06:49:28;;;;;;;79.75;13.57;;;;;;;;;;5010077;28;20110;-63
2023/04/23 06:51:54;;;;;;;78.95;20.20;;;;;;;;;;5021986;28;20095;-64
2023/04/23 06:54:23;;;;;;;66.78;30.73;;;;;;;;;;5008141;28;20081;-62
2023/04/23 06:56:49;;;;;;;85.15;26.65;;;;;;;;;;5003776;28;20138;-66
2023/04/23 06:59:16;;;;;;;98.03;33.70;;;;;;;;;;5011563;28;20049;-64
2023/04/23 07:01:46;;;;;;;156.25;27.83;;;;;;;;;;5016824;28;20058;-64
2023/04/23 07:04:12;;;;;;;59.25;14.57;;;;;;;;;;5021759;28;20053;-65
2023/04/23 07:06:39;;;;;;;93.10;12.82;;;;;;;;;;5023570;28;20511;-65
2023/04/23 07:09:06;;;;;;;215.70;25.40;;;;;;;;;;5020579;28;20046;-64
2023/04/23 07:11:35;;;;;;;105.00;93.70;;;;;;;;;;5021725;28;20064;-63
2023/04/23 07:14:02;;;;;;;172.75;69.38;;;;;;;;;;5011038;28;20080;-65
2023/04/23 07:16:32;;;;;;;188.75;48.95;;;;;;;;;;5018659;28;20060;-61
2023/04/23 07:19:00;;;;;;;128.43;39.80;;;;;;;;;;5019791;28;20045;-63
2023/04/23 07:21:27;;;;;;;124.68;84.07;;;;;;;;;;5021160;28;20049;-64
2023/04/23 07:23:55;;;;;;;105.18;72.22;;;;;;;;;;5021718;28;20340;-67
2023/04/23 07:26:22;;;;;;;80.20;51.20;;;;;;;;;;5001937;28;20453;-63
2023/04/23 07:28:49;;;;;;;138.43;63.65;;;;;;;;;;5019565;28;20052;-63
2023/04/23 07:31:19;;;;;;;108.20;63.28;;;;;;;;;;5019292;28;20522;-64
2023/04/23 07:33:46;;;;;;;83.18;30.10;;;;;;;;;;5021251;28;20526;-63
2023/04/23 07:36:13;;;;;;;94.25;24.65;;;;;;;;;;5020835;28;20096;-64
2023/04/23 07:38:40;;;;;;;88.97;23.70;;;;;;;;;;5020600;28;20052;-65
2023/04/23 07:41:06;;;;;;;79.68;23.95;;;;;;;;;;5002111;28;20490;-63
2023/04/23 07:43:32;;;;;;;112.65;27.98;;;;;;;;;;5024870;28;20056;-65
2023/04/23 07:45:59;;;;;;;70.82;11.88;;;;;;;;;;5022876;28;20057;-65
2023/04/23 07:48:26;;;;;;;56.65;11.23;;;;;;;;;;5017976;28;20048;-64
2023/04/23 07:50:52;;;;;;;71.63;14.65;;;;;;;;;;5018846;28;20046;-64
2023/04/23 07:53:19;;;;;;;76.82;15.52;;;;;;;;;;5020048;28;20045;-63
2023/04/23 07:55:45;;;;;;;79.05;16.25;;;;;;;;;;5017923;28;20053;-65
2023/04/23 07:58:12;;;;;;;117.05;15.82;;;;;;;;;;5007337;28;20137;-63
2023/04/23 08:00:38;;;;;;;137.50;17.05;;;;;;;;;;5022458;28;20042;-64
2023/04/23 08:03:06;;;;;;;189.23;17.35;;;;;;;;;;5021413;28;20617;-65
2023/04/23 08:05:33;;;;;;;95.07;10.95;;;;;;;;;;5021619;28;20153;-68
2023/04/23 08:08:00;;;;;;;99.05;12.50;;;;;;;;;;5018767;28;20148;-66
2023/04/23 08:10:26;;;;;;;52.30;9.00;;;;;;;;;;5017014;28;20093;-64
2023/04/23 08:12:53;;;;;;;97.47;10.93;;;;;;;;;;5013996;28;20054;-64
2023/04/23 08:15:20;;;;;;;70.25;8.98;;;;;;;;;;5015878;28;20068;-64
2023/04/23 08:17:46;;;;;;;67.78;8.20;;;;;;;;;;5019724;28;20069;-63
2023/04/23 08:20:13;;;;;;;133.45;11.98;;;;;;;;;;5023205;28;20060;-63
2023/04/23 08:22:39;;;;;;;21.40;5.90;;;;;;;;;;5022673;28;20096;-63
2023/04/23 08:25:06;;;;;;;34.63;8.95;;;;;;;;;;5023792;28;20069;-64
2023/04/23 08:27:33;;;;;;;31.30;10.77;;;;;;;;;;5010153;28;20108;-64
2023/04/23 08:29:59;;;;;;;23.85;7.50;;;;;;;;;;5011255;28;20515;-60
2023/04/23 08:32:26;;;;;;;36.60;6.57;;;;;;;;;;5022199;28;20047;-60
2023/04/23 08:34:53;;;;;;;76.45;9.38;;;;;;;;;;5017682;28;20548;-64
2023/04/23 08:37:19;;;;;;;33.40;5.78;;;;;;;;;;5022713;28;20060;-61
2023/04/23 08:39:56;;;;;;;41.70;6.60;;;;;;;;;;5024665;28;20385;-64
2023/04/23 08:42:25;;;;;;;55.70;6.40;;;;;;;;;;5022663;28;20128;-60
2023/04/23 08:44:52;;;;;;;24.63;4.53;;;;;;;;;;5008824;28;20038;-61
2023/04/23 08:47:20;;;;;;;45.63;5.57;;;;;;;;;;5025109;28;20535;-61
2023/04/23 08:49:49;;;;;;;52.88;6.05;;;;;;;;;;5020665;28;20041;-65
2023/04/23 08:52:17;;;;;;;35.40;5.40;;;;;;;;;;5002989;28;20038;-63
2023/04/23 08:54:45;;;;;;;53.25;5.68;;;;;;;;;;5004454;28;20594;-62
2023/04/23 08:57:12;;;;;;;72.50;7.53;;;;;;;;;;5026247;28;20440;-64
2023/04/23 08:59:39;;;;;;;53.13;5.88;;;;;;;;;;5021069;28;20100;-63
2023/04/23 09:02:08;;;;;;;25.55;3.97;;;;;;;;;;5021958;28;20129;-64
2023/04/23 09:04:36;;;;;;;35.50;4.82;;;;;;;;;;5024546;28;20056;-65
2023/04/23 09:07:11;;;;;;;65.78;7.55;;;;;;;;;;5012286;28;20041;-64
2023/04/23 09:09:39;;;;;;;43.05;4.90;;;;;;;;;;5021419;28;20041;-62
2023/04/23 09:12:07;;;;;;;27.92;4.35;;;;;;;;;;5019357;28;20488;-64
2023/04/23 09:14:34;;;;;;;74.03;7.40;;;;;;;;;;5022782;28;20029;-63
2023/04/23 09:17:03;;;;;;;56.88;6.38;;;;;;;;;;5021150;28;20478;-62
2023/04/23 09:19:30;;;;;;;60.92;6.47;;;;;;;;;;5022700;28;20096;-64
2023/04/23 09:21:57;;;;;;;22.77;3.80;;;;;;;;;;4989156;28;20041;-62
2023/04/23 09:24:24;;;;;;;38.05;4.85;;;;;;;;;;5019161;28;20052;-64
2023/04/23 09:26:51;;;;;;;26.65;3.90;;;;;;;;;;5009788;28;20057;-63
2023/04/23 09:29:20;;;;;;;40.17;5.03;;;;;;;;;;5028526;28;20047;-63
2023/04/23 09:31:50;;;;;;;104.43;9.45;;;;;;;;;;5001138;28;20148;-66
2023/04/23 09:34:18;;;;;;;173.38;11.30;;;;;;;;;;5022495;28;20049;-65
2023/04/23 09:36:45;;;;;;;16.38;3.15;;;;;;;;;;5021388;28;20425;-58
2023/04/23 09:39:12;;;;;;;49.00;5.60;;;;;;;;;;5023673;28;20467;-61
2023/04/23 09:41:39;;;;;;;84.30;69.57;;;;;;;;;;5002929;28;20200;-60
2023/04/23 09:44:07;;;;;;;85.78;29.65;;;;;;;;;;5023312;28;20096;-66
2023/04/23 09:46:39;;;;;;;38.92;18.75;;;;;;;;;;5020854;28;20495;-64
2023/04/23 09:49:12;;;;;;;149.10;19.25;;;;;;;;;;5023490;28;20067;-64
2023/04/23 09:51:39;;;;;;;71.03;12.73;;;;;;;;;;5006967;28;20116;-61
2023/04/23 09:54:17;;;;;;;31.45;8.38;;;;;;;;;;5028518;28;20566;-64
2023/04/23 09:56:48;;;;;;;64.20;10.15;;;;;;;;;;5025071;28;20038;-63
2023/04/23 09:59:25;;;;;;;116.40;11.98;;;;;;;;;;5024087;28;20942;-65
2023/04/23 10:02:11;;;;;;;142.05;12.75;;;;;;;;;;5023905;28;20053;-63
2023/04/23 10:04:38;;;;;;;63.00;7.45;;;;;;;;;;5025765;28;20054;-62
2023/04/23 10:07:07;;;;;;;63.38;6.90;;;;;;;;;;5024261;28;20044;-63
2023/04/23 10:09:46;;;;;;;59.75;7.00;;;;;;;;;;5024724;28;20038;-63
2023/04/23 10:12:13;;;;;;;45.63;6.38;;;;;;;;;;5024554;28;20372;-63
2023/04/23 10:14:44;;;;;;;37.33;4.78;;;;;;;;;;5020018;28;20033;-64
2023/04/23 10:17:10;;;;;;;47.55;5.65;;;;;;;;;;5023834;28;20407;-62
2023/04/23 10:19:39;;;;;;;44.72;5.30;;;;;;;;;;5024071;28;20109;-65
2023/04/23 10:22:08;;;;;;;109.70;7.65;;;;;;;;;;4990038;28;20053;-63
2023/04/23 10:24:44;;;;;;;498.42;30.23;;;;;;;;;;5010623;28;20083;-64
2023/04/23 10:27:15;;;;;;;156.18;11.85;;;;;;;;;;5021667;28;20045;-64
2023/04/23 10:29:59;;;;;;;36.42;5.50;;;;;;;;;;5022233;28;20046;-63
2023/04/23 10:32:26;;;;;;;59.88;6.20;;;;;;;;;;5024382;28;20048;-63
2023/04/23 10:34:53;;;;;;;87.30;9.13;;;;;;;;;;5013680;28;20141;-60
2023/04/23 10:37:19;;;;;;;136.82;10.77;;;;;;;;;;5024877;28;20053;-63
2023/04/23 10:39:48;;;;;;;37.60;7.05;;;;;;;;;;5021612;28;20042;-62
2023/04/23 10:42:15;;;;;;;25.60;4.55;;;;;;;;;;5005745;28;20041;-64
2023/04/23 10:44:42;;;;;;;27.02;4.20;;;;;;;;;;5028358;28;20099;-62
2023/04/23 10:47:13;;;;;;;219.73;14.43;;;;;;;;;;5023806;28;20042;-63
2023/04/23 10:49:40;;;;;;;53.47;6.30;;;;;;;;;;5024997;28;20045;-60
2023/04/23 10:52:15;;;;;;;16.77;2.83;;;;;;;;;;5027898;28;20053;-63
2023/04/23 10:54:49;;;;;;;50.80;4.85;;;;;;;;;;4993202;28;20476;-62
2023/04/23 10:57:15;;;;;;;354.67;22.50;;;;;;;;;;5025047;28;20112;-63
2023/04/23 10:59:52;;;;;;;42.03;4.35;;;;;;;;;;5022115;28;20060;-64
2023/04/23 11:02:21;;;;;;;379.45;24.77;;;;;;;;;;5005672;28;20504;-61
2023/04/23 11:04:55;;;;;;;51.08;5.28;;;;;;;;;;5024909;28;20037;-64
2023/04/23 11:07:29;;;;;;;28.95;3.83;;;;;;;;;;5003368;28;20542;-64
2023/04/23 11:09:56;;;;;;;;;;;;;;;;;;5011697;28;20103;-62
2023/04/23 11:12:26;;;;;;;40.20;4.57;;;;;;;;;;5007233;28;19921;-63
2023/04/23 11:14:53;;;;;;;174.23;11.77;;;;;;;;;;5023257;28;20045;-63
2023/04/23 11:17:43;;;;;;;74.45;6.97;;;;;;;;;;5011572;28;20097;-62
2023/04/23 11:20:15;;;;;;;87.45;6.85;;;;;;;;;;5022306;28;20041;-66
2023/04/23 11:22:42;;;;;;;91.50;7.75;;;;;;;;;;5026895;28;20100;-59
2023/04/23 11:25:10;;;;;;;61.03;5.93;;;;;;;;;;5021114;28;20077;-64
2023/04/23 11:27:37;;;;;;;54.08;5.22;;;;;;;;;;5023610;28;20099;-63
2023/04/23 11:30:04;;;;;;;71.90;5.90;;;;;;;;;;5012962;28;20041;-64
2023/04/23 11:32:31;;;;;;;42.13;4.90;;;;;;;;;;5012281;28;20050;-63
2023/04/23 11:34:59;;;;;;;132.07;11.45;;;;;;;;;;5022264;28;20121;-63
2023/04/23 11:37:25;;;;;;;34.75;4.20;;;;;;;;;;5021178;28;20137;-62
2023/04/23 11:39:52;;;;;;;45.28;5.00;;;;;;;;;;5013273;28;20080;-63
2023/04/23 11:42:19;;;;;;;46.67;5.28;;;;;;;;;;5025221;28;20458;-62
2023/04/23 11:44:46;;;;;;;77.82;7.97;;;;;;;;;;5004089;28;20080;-63
2023/04/23 11:47:15;;;;;;;43.72;6.10;;;;;;;;;;5023261;28;20140;-62
2023/04/23 11:49:42;;;;;;;43.55;5.35;;;;;;;;;;5023108;28;20139;-62
2023/04/23 11:52:10;;;;;;;96.75;8.23;;;;;;;;;;5003197;28;20046;-65
2023/04/23 11:54:39;;;;;;;106.15;7.75;;;;;;;;;;5020491;28;20042;-64
2023/04/23 11:57:05;;;;;;;58.10;6.10;;;;;;;;;;5022309;28;20141;-65
2023/04/23 11:59:32;;;;;;;55.53;5.80;;;;;;;;;;5004874;28;20045;-64
2023/04/23 12:01:59;;;;;;;122.82;10.27;;;;;;;;;;5012795;28;20152;-64
2023/04/23 12:04:27;;;;;;;164.73;12.88;;;;;;;;;;5022815;28;20081;-61
2023/04/23 12:06:55;;;;;;;46.35;5.55;;;;;;;;;;5023671;28;20050;-64
2023/04/23 12:09:23;;;;;;;41.13;5.63;;;;;;;;;;5024031;28;20057;-60
2023/04/23 12:11:50;;;;;;;35.53;4.30;;;;;;;;;;5021603;28;20045;-64
2023/04/23 12:14:17;;;;;;;26.63;3.85;;;;;;;;;;5021185;28;20041;-64
2023/04/23 12:16:45;;;;;;;67.95;6.15;;;;;;;;;;5022255;28;20072;-62
2023/04/23 12:19:16;;;;;;;70.30;6.55;;;;;;;;;;5019919;28;20189;-64
2023/04/23 12:21:53;;;;;;;38.42;4.90;;;;;;;;;;5022170;28;20081;-64
2023/04/23 12:24:24;;;;;;;46.65;5.25;;;;;;;;;;5022944;28;20041;-64
2023/04/23 12:26:53;;;;;;;57.25;7.68;;;;;;;;;;5005010;28;20034;-63
2023/04/23 12:29:23;;;;;;;50.00;5.70;;;;;;;;;;5004628;28;20041;-65
2023/04/23 12:31:51;;;;;;;206.10;13.00;;;;;;;;;;5021572;28;20088;-64
2023/04/23 12:34:19;;;;;;;49.03;5.70;;;;;;;;;;5019388;28;20046;-63
2023/04/23 12:36:47;;;;;;;44.05;5.55;;;;;;;;;;5003631;28;20052;-62
2023/04/23 12:39:18;;;;;;;92.72;7.55;;;;;;;;;;5020162;28;20047;-65
2023/04/23 12:41:44;;;;;;;34.17;4.35;;;;;;;;;;5022439;28;20116;-63
2023/04/23 12:44:11;;;;;;;38.40;5.03;;;;;;;;;;5025360;28;20056;-64
2023/04/23 12:46:37;;;;;;;90.60;7.90;;;;;;;;;;5004832;28;20046;-64
2023/04/23 12:49:05;;;;;;;83.35;6.13;;;;;;;;;;5023914;28;20050;-63
2023/04/23 12:51:31;;;;;;;32.80;4.35;;;;;;;;;;5009261;28;20050;-60
2023/04/23 12:53:58;;;;;;;41.42;5.40;;;;;;;;;;5023501;28;20046;-64
2023/04/23 12:56:25;;;;;;;34.85;4.55;;;;;;;;;;5021807;28;20037;-63
2023/04/23 12:58:51;;;;;;;33.63;4.55;;;;;;;;;;5019595;28;20096;-64
2023/04/23 13:01:18;;;;;;;147.38;11.63;;;;;;;;;;5019422;28;20403;-64
2023/04/23 13:03:45;;;;;;;79.75;6.57;;;;;;;;;;5021941;28;20125;-64
2023/04/23 13:06:12;;;;;;;170.10;15.45;;;;;;;;;;5026945;28;20103;-61
2023/04/23 13:08:38;;;;;;;41.75;5.15;;;;;;;;;;5021115;28;20046;-65
2023/04/23 13:11:05;;;;;;;114.15;8.65;;;;;;;;;;5020450;28;20470;-64
2023/04/23 13:13:31;;;;;;;40.05;4.40;;;;;;;;;;5022945;28;20072;-64
2023/04/23 13:15:58;;;;;;;40.17;4.85;;;;;;;;;;5020106;28;20471;-62
2023/04/23 13:18:24;;;;;;;36.38;4.20;;;;;;;;;;5018209;28;20407;-60
2023/04/23 13:20:51;;;;;;;58.53;5.55;;;;;;;;;;5022101;28;20081;-64
2023/04/23 13:23:17;;;;;;;33.97;4.03;;;;;;;;;;5025114;28;20045;-64
2023/04/23 13:25:44;;;;;;;54.22;6.15;;;;;;;;;;5024413;28;20136;-63
2023/04/23 13:28:11;;;;;;;45.90;5.40;;;;;;;;;;5015389;28;20092;-63
2023/04/23 13:30:37;;;;;;;61.03;5.75;;;;;;;;;;5021956;28;20782;-63
2023/04/23 13:33:04;;;;;;;87.90;7.10;;;;;;;;;;5013578;28;20046;-65
2023/04/23 13:35:31;;;;;;;137.48;11.60;;;;;;;;;;5008233;28;20055;-64
2023/04/23 13:37:57;;;;;;;92.38;8.30;;;;;;;;;;5022959;28;20407;-63
2023/04/23 13:40:24;;;;;;;53.05;5.82;;;;;;;;;;5008157;28;20088;-64
2023/04/23 13:42:52;;;;;;;166.57;11.32;;;;;;;;;;5025569;28;20116;-61
2023/04/23 13:45:18;;;;;;;71.45;6.97;;;;;;;;;;5025493;28;20565;-61
2023/04/23 13:47:47;;;;;;;177.65;12.80;;;;;;;;;;5024028;28;20045;-62
2023/04/23 13:50:14;;;;;;;56.65;6.38;;;;;;;;;;5025222;28;20046;-61
2023/04/23 13:52:40;;;;;;;47.38;5.40;;;;;;;;;;5023504;28;20076;-63
2023/04/23 13:55:08;;;;;;;30.77;4.90;;;;;;;;;;5024321;28;20046;-62
2023/04/23 13:57:35;;;;;;;46.65;5.28;;;;;;;;;;5013579;28;20136;-63
2023/04/23 14:00:01;;;;;;;72.32;6.15;;;;;;;;;;5026549;28;20372;-63
2023/04/23 14:02:29;;;;;;;43.83;4.93;;;;;;;;;;5027644;28;20124;-63
2023/04/23 14:04:57;;;;;;;80.53;7.82;;;;;;;;;;5024284;28;20133;-64
2023/04/23 14:07:23;;;;;;;34.47;4.55;;;;;;;;;;5023530;28;20458;-62
2023/04/23 14:09:51;;;;;;;129.60;10.88;;;;;;;;;;5025854;28;20037;-60
2023/04/23 14:12:18;;;;;;;92.43;9.02;;;;;;;;;;5023011;28;20536;-63
2023/04/23 14:14:45;;;;;;;21.27;4.72;;;;;;;;;;5025093;28;20069;-64
2023/04/23 14:17:11;;;;;;;69.53;7.10;;;;;;;;;;5023651;28;20041;-64
2023/04/23 14:19:38;;;;;;;121.47;9.27;;;;;;;;;;5012904;28;20053;-62